Palmers Lookout, Australia
Current Conditions -  °F | °C
As of 2:00 AM on Saturday 20 Dec 2014 (Local Time) from YMHB Reporting Station
Broken Clouds Broken Clouds  
Wind Chill: 57°   Ceiling: 8000
Heat Index: 57°   Visibility: 6mi
Dew Point: 39°   Wind: 10mph
Humidity: 51%   Direction: 330°NNW
Pressure: 29.85"   Gusts: NA
Location:  43.17°S, 147.83°E
Report Text: YMHB 191500Z 33009KT 9999 FEW040 BKN080 14/04 Q1011
Loading
Personal Weather Stations






























Interactive Weather Map New forecast layout! Learn more

10-Day Weather Forecast

Advertisements
Track Severe Weather on mobile